sensor_id;sensor_type;location;lat;lon;timestamp;temperature;humidity
73780;SHT30;62093;37.614;15.072;2023-04-25T00:01:32;17.69;59.50
73780;SHT30;62093;37.614;15.072;2023-04-25T00:04:00;17.71;59.49
73780;SHT30;62093;37.614;15.072;2023-04-25T00:06:26;17.71;59.63
73780;SHT30;62093;37.614;15.072;2023-04-25T00:08:52;17.69;59.61
73780;SHT30;62093;37.614;15.072;2023-04-25T00:11:19;17.68;59.58
73780;SHT30;62093;37.614;15.072;2023-04-25T00:13:45;17.69;59.68
73780;SHT30;62093;37.614;15.072;2023-04-25T00:16:12;17.68;59.60
73780;SHT30;62093;37.614;15.072;2023-04-25T00:18:41;17.68;59.70
73780;SHT30;62093;37.614;15.072;2023-04-25T00:21:07;17.66;59.72
73780;SHT30;62093;37.614;15.072;2023-04-25T00:23:33;17.65;59.65
73780;SHT30;62093;37.614;15.072;2023-04-25T00:26:01;17.63;59.75
73780;SHT30;62093;37.614;15.072;2023-04-25T00:28:26;17.63;59.76
73780;SHT30;62093;37.614;15.072;2023-04-25T00:30:52;17.62;59.77
73780;SHT30;62093;37.614;15.072;2023-04-25T00:33:18;17.63;59.78
73780;SHT30;62093;37.614;15.072;2023-04-25T00:35:44;17.62;59.84
73780;SHT30;62093;37.614;15.072;2023-04-25T00:38:10;17.63;59.86
73780;SHT30;62093;37.614;15.072;2023-04-25T00:40:36;17.61;59.91
73780;SHT30;62093;37.614;15.072;2023-04-25T00:43:02;17.61;59.90
73780;SHT30;62093;37.614;15.072;2023-04-25T00:45:29;17.61;59.95
73780;SHT30;62093;37.614;15.072;2023-04-25T00:47:55;17.61;59.99
73780;SHT30;62093;37.614;15.072;2023-04-25T00:50:22;17.59;59.98
73780;SHT30;62093;37.614;15.072;2023-04-25T00:52:48;17.58;60.00
73780;SHT30;62093;37.614;15.072;2023-04-25T00:55:15;17.56;60.10
73780;SHT30;62093;37.614;15.072;2023-04-25T00:57:41;17.58;60.07
73780;SHT30;62093;37.614;15.072;2023-04-25T01:00:08;17.56;60.11
73780;SHT30;62093;37.614;15.072;2023-04-25T01:02:40;17.59;60.12
73780;SHT30;62093;37.614;15.072;2023-04-25T01:05:08;17.58;60.12
73780;SHT30;62093;37.614;15.072;2023-04-25T01:07:34;17.55;60.09
73780;SHT30;62093;37.614;15.072;2023-04-25T01:10:01;17.54;60.09
73780;SHT30;62093;37.614;15.072;2023-04-25T01:12:28;17.52;60.16
73780;SHT30;62093;37.614;15.072;2023-04-25T01:14:54;17.55;60.16
73780;SHT30;62093;37.614;15.072;2023-04-25T01:17:20;17.54;60.19
73780;SHT30;62093;37.614;15.072;2023-04-25T01:19:46;17.51;60.19
73780;SHT30;62093;37.614;15.072;2023-04-25T01:22:14;17.51;60.20
73780;SHT30;62093;37.614;15.072;2023-04-25T01:24:40;17.54;60.23
73780;SHT30;62093;37.614;15.072;2023-04-25T01:27:07;17.52;60.24
73780;SHT30;62093;37.614;15.072;2023-04-25T01:29:36;17.52;60.26
73780;SHT30;62093;37.614;15.072;2023-04-25T01:32:03;17.49;60.22
73780;SHT30;62093;37.614;15.072;2023-04-25T01:34:29;17.48;60.27
73780;SHT30;62093;37.614;15.072;2023-04-25T01:36:59;17.45;60.21
73780;SHT30;62093;37.614;15.072;2023-04-25T01:39:25;17.49;60.29
73780;SHT30;62093;37.614;15.072;2023-04-25T01:41:51;17.48;60.35
73780;SHT30;62093;37.614;15.072;2023-04-25T01:44:17;17.48;60.35
73780;SHT30;62093;37.614;15.072;2023-04-25T01:46:43;17.46;60.27
73780;SHT30;62093;37.614;15.072;2023-04-25T01:49:10;17.45;60.42
73780;SHT30;62093;37.614;15.072;2023-04-25T01:51:37;17.45;60.36
73780;SHT30;62093;37.614;15.072;2023-04-25T01:54:03;17.46;60.37
73780;SHT30;62093;37.614;15.072;2023-04-25T01:56:32;17.42;60.40
73780;SHT30;62093;37.614;15.072;2023-04-25T01:58:59;17.44;60.36
73780;SHT30;62093;37.614;15.072;2023-04-25T02:01:35;17.45;60.40
73780;SHT30;62093;37.614;15.072;2023-04-25T02:04:14;17.44;60.47
73780;SHT30;62093;37.614;15.072;2023-04-25T02:06:40;17.46;60.34
73780;SHT30;62093;37.614;15.072;2023-04-25T02:09:07;17.42;60.40
73780;SHT30;62093;37.614;15.072;2023-04-25T02:11:32;17.44;60.47
73780;SHT30;62093;37.614;15.072;2023-04-25T02:14:31;17.42;60.45
73780;SHT30;62093;37.614;15.072;2023-04-25T02:17:04;17.42;60.38
73780;SHT30;62093;37.614;15.072;2023-04-25T02:19:31;17.41;60.48
73780;SHT30;62093;37.614;15.072;2023-04-25T02:21:57;17.42;60.43
73780;SHT30;62093;37.614;15.072;2023-04-25T02:24:24;17.39;60.52
73780;SHT30;62093;37.614;15.072;2023-04-25T02:26:50;17.41;60.46
73780;SHT30;62093;37.614;15.072;2023-04-25T02:29:16;17.39;60.54
73780;SHT30;62093;37.614;15.072;2023-04-25T02:31:42;17.38;60.51
73780;SHT30;62093;37.614;15.072;2023-04-25T02:34:08;17.41;60.55
73780;SHT30;62093;37.614;15.072;2023-04-25T02:36:36;17.39;60.63
73780;SHT30;62093;37.614;15.072;2023-04-25T02:39:02;17.38;60.54
73780;SHT30;62093;37.614;15.072;2023-04-25T02:41:28;17.39;60.59
73780;SHT30;62093;37.614;15.072;2023-04-25T02:43:54;17.36;60.61
73780;SHT30;62093;37.614;15.072;2023-04-25T02:46:20;17.35;60.46
73780;SHT30;62093;37.614;15.072;2023-04-25T02:48:46;17.34;60.55
73780;SHT30;62093;37.614;15.072;2023-04-25T02:51:12;17.35;60.57
73780;SHT30;62093;37.614;15.072;2023-04-25T02:53:38;17.35;60.64
73780;SHT30;62093;37.614;15.072;2023-04-25T02:56:04;17.35;60.64
73780;SHT30;62093;37.614;15.072;2023-04-25T02:58:30;17.31;60.72
73780;SHT30;62093;37.614;15.072;2023-04-25T03:00:56;17.35;60.68
73780;SHT30;62093;37.614;15.072;2023-04-25T03:03:22;17.35;60.66
73780;SHT30;62093;37.614;15.072;2023-04-25T03:05:49;17.34;60.64
73780;SHT30;62093;37.614;15.072;2023-04-25T03:08:19;17.32;60.78
73780;SHT30;62093;37.614;15.072;2023-04-25T03:10:45;17.34;60.77
73780;SHT30;62093;37.614;15.072;2023-04-25T03:13:13;17.34;60.64
73780;SHT30;62093;37.614;15.072;2023-04-25T03:15:42;17.32;60.76
73780;SHT30;62093;37.614;15.072;2023-04-25T03:18:07;17.32;60.73
73780;SHT30;62093;37.614;15.072;2023-04-25T03:20:33;17.31;60.77
73780;SHT30;62093;37.614;15.072;2023-04-25T03:23:00;17.32;60.64
73780;SHT30;62093;37.614;15.072;2023-04-25T03:25:27;17.31;60.69
73780;SHT30;62093;37.614;15.072;2023-04-25T03:27:53;17.32;60.76
73780;SHT30;62093;37.614;15.072;2023-04-25T03:30:18;17.32;60.64
73780;SHT30;62093;37.614;15.072;2023-04-25T03:32:45;17.34;60.73
73780;SHT30;62093;37.614;15.072;2023-04-25T03:35:15;17.30;60.66
73780;SHT30;62093;37.614;15.072;2023-04-25T03:37:40;17.32;60.64
73780;SHT30;62093;37.614;15.072;2023-04-25T03:40:12;17.30;60.78
73780;SHT30;62093;37.614;15.072;2023-04-25T03:42:56;17.32;60.80
73780;SHT30;62093;37.614;15.072;2023-04-25T03:45:22;17.31;60.84
73780;SHT30;62093;37.614;15.072;2023-04-25T03:47:48;17.32;60.72
73780;SHT30;62093;37.614;15.072;2023-04-25T03:50:15;17.30;60.74
73780;SHT30;62093;37.614;15.072;2023-04-25T03:52:40;17.31;60.70
73780;SHT30;62093;37.614;15.072;2023-04-25T03:55:08;17.30;60.80
73780;SHT30;62093;37.614;15.072;2023-04-25T03:57:34;17.31;60.82
73780;SHT30;62093;37.614;15.072;2023-04-25T04:00:00;17.31;60.85
73780;SHT30;62093;37.614;15.072;2023-04-25T04:02:28;17.30;60.82
73780;SHT30;62093;37.614;15.072;2023-04-25T04:04:55;17.30;60.82
73780;SHT30;62093;37.614;15.072;2023-04-25T04:07:22;17.28;60.78
73780;SHT30;62093;37.614;15.072;2023-04-25T04:09:53;17.28;60.76
73780;SHT30;62093;37.614;15.072;2023-04-25T04:12:25;17.27;60.85
73780;SHT30;62093;37.614;15.072;2023-04-25T04:14:51;17.30;60.85
73780;SHT30;62093;37.614;15.072;2023-04-25T04:17:17;17.27;60.84
73780;SHT30;62093;37.614;15.072;2023-04-25T04:19:43;17.27;60.85
73780;SHT30;62093;37.614;15.072;2023-04-25T04:22:17;17.27;60.88
73780;SHT30;62093;37.614;15.072;2023-04-25T04:24:43;17.25;60.87
73780;SHT30;62093;37.614;15.072;2023-04-25T04:27:10;17.27;60.90
73780;SHT30;62093;37.614;15.072;2023-04-25T04:29:48;17.27;60.79
73780;SHT30;62093;37.614;15.072;2023-04-25T04:32:33;17.27;60.93
73780;SHT30;62093;37.614;15.072;2023-04-25T04:35:00;17.25;60.87
73780;SHT30;62093;37.614;15.072;2023-04-25T04:37:26;17.27;60.98
73780;SHT30;62093;37.614;15.072;2023-04-25T04:39:52;17.24;60.87
73780;SHT30;62093;37.614;15.072;2023-04-25T04:42:45;17.24;60.98
73780;SHT30;62093;37.614;15.072;2023-04-25T04:45:37;17.25;60.88
73780;SHT30;62093;37.614;15.072;2023-04-25T04:48:11;17.24;60.85
73780;SHT30;62093;37.614;15.072;2023-04-25T04:50:58;17.23;60.93
73780;SHT30;62093;37.614;15.072;2023-04-25T04:53:44;17.23;61.00
73780;SHT30;62093;37.614;15.072;2023-04-25T04:56:22;17.21;60.83
73780;SHT30;62093;37.614;15.072;2023-04-25T04:59:24;17.23;60.93
73780;SHT30;62093;37.614;15.072;2023-04-25T05:01:59;17.21;61.07
73780;SHT30;62093;37.614;15.072;2023-04-25T05:04:43;17.21;61.01
73780;SHT30;62093;37.614;15.072;2023-04-25T05:07:27;17.21;61.07
73780;SHT30;62093;37.614;15.072;2023-04-25T05:10:22;17.20;60.98
73780;SHT30;62093;37.614;15.072;2023-04-25T05:13:03;17.23;60.83
73780;SHT30;62093;37.614;15.072;2023-04-25T05:15:57;17.20;61.06
73780;SHT30;62093;37.614;15.072;2023-04-25T05:18:46;17.21;60.93
73780;SHT30;62093;37.614;15.072;2023-04-25T05:21:28;17.18;60.79
73780;SHT30;62093;37.614;15.072;2023-04-25T05:24:06;17.20;61.03
73780;SHT30;62093;37.614;15.072;2023-04-25T05:26:50;17.20;60.84
73780;SHT30;62093;37.614;15.072;2023-04-25T05:29:42;17.18;60.92
73780;SHT30;62093;37.614;15.072;2023-04-25T05:32:25;17.20;61.05
73780;SHT30;62093;37.614;15.072;2023-04-25T05:34:51;17.18;61.05
73780;SHT30;62093;37.614;15.072;2023-04-25T05:37:24;17.20;61.05
73780;SHT30;62093;37.614;15.072;2023-04-25T05:40:05;17.20;61.06
73780;SHT30;62093;37.614;15.072;2023-04-25T05:42:50;17.23;61.00
73780;SHT30;62093;37.614;15.072;2023-04-25T05:45:55;17.21;60.96
73780;SHT30;62093;37.614;15.072;2023-04-25T05:48:49;17.23;61.13
73780;SHT30;62093;37.614;15.072;2023-04-25T05:51:41;17.21;61.05
73780;SHT30;62093;37.614;15.072;2023-04-25T05:54:30;17.24;60.96
73780;SHT30;62093;37.614;15.072;2023-04-25T05:56:57;17.23;60.65
73780;SHT30;62093;37.614;15.072;2023-04-25T05:59:23;17.24;60.72
73780;SHT30;62093;37.614;15.072;2023-04-25T06:01:49;17.25;60.78
73780;SHT30;62093;37.614;15.072;2023-04-25T06:04:15;17.28;60.81
73780;SHT30;62093;37.614;15.072;2023-04-25T06:06:41;17.28;60.87
73780;SHT30;62093;37.614;15.072;2023-04-25T06:09:06;17.30;60.68
73780;SHT30;62093;37.614;15.072;2023-04-25T06:11:32;17.31;60.65
73780;SHT30;62093;37.614;15.072;2023-04-25T06:13:58;17.30;60.65
73780;SHT30;62093;37.614;15.072;2023-04-25T06:16:24;17.31;60.74
73780;SHT30;62093;37.614;15.072;2023-04-25T06:18:51;17.32;60.61
73780;SHT30;62093;37.614;15.072;2023-04-25T06:21:17;17.32;60.48
73780;SHT30;62093;37.614;15.072;2023-04-25T06:23:43;17.34;60.55
73780;SHT30;62093;37.614;15.072;2023-04-25T06:26:12;17.32;60.38
73780;SHT30;62093;37.614;15.072;2023-04-25T06:28:41;17.35;60.55
73780;SHT30;62093;37.614;15.072;2023-04-25T06:31:08;17.35;60.37
73780;SHT30;62093;37.614;15.072;2023-04-25T06:33:34;17.36;60.34
73780;SHT30;62093;37.614;15.072;2023-04-25T06:36:02;17.39;60.45
73780;SHT30;62093;37.614;15.072;2023-04-25T06:38:28;17.41;60.29
73780;SHT30;62093;37.614;15.072;2023-04-25T06:40:56;17.41;60.33
73780;SHT30;62093;37.614;15.072;2023-04-25T06:43:22;17.38;60.37
73780;SHT30;62093;37.614;15.072;2023-04-25T06:46:03;17.42;60.32
73780;SHT30;62093;37.614;15.072;2023-04-25T06:48:31;17.44;60.32
73780;SHT30;62093;37.614;15.072;2023-04-25T06:50:58;17.45;60.38
73780;SHT30;62093;37.614;15.072;2023-04-25T06:53:25;17.45;60.28
73780;SHT30;62093;37.614;15.072;2023-04-25T06:55:57;17.46;60.34
73780;SHT30;62093;37.614;15.072;2023-04-25T06:58:27;17.46;60.28
73780;SHT30;62093;37.614;15.072;2023-04-25T07:00:53;17.48;60.31
73780;SHT30;62093;37.614;15.072;2023-04-25T07:03:22;17.49;60.32
73780;SHT30;62093;37.614;15.072;2023-04-25T07:05:49;17.51;60.19
73780;SHT30;62093;37.614;15.072;2023-04-25T07:08:15;17.51;60.15
73780;SHT30;62093;37.614;15.072;2023-04-25T07:10:41;17.52;60.15
73780;SHT30;62093;37.614;15.072;2023-04-25T07:13:07;17.52;60.22
73780;SHT30;62093;37.614;15.072;2023-04-25T07:15:33;17.52;60.20
73780;SHT30;62093;37.614;15.072;2023-04-25T07:18:00;17.52;60.17
73780;SHT30;62093;37.614;15.072;2023-04-25T07:20:26;17.51;60.20
73780;SHT30;62093;37.614;15.072;2023-04-25T07:22:53;17.56;60.16
73780;SHT30;62093;37.614;15.072;2023-04-25T07:25:19;17.55;60.16
73780;SHT30;62093;37.614;15.072;2023-04-25T07:27:45;17.56;60.15
73780;SHT30;62093;37.614;15.072;2023-04-25T07:30:15;17.58;60.13
73780;SHT30;62093;37.614;15.072;2023-04-25T07:32:41;17.59;60.05
73780;SHT30;62093;37.614;15.072;2023-04-25T07:35:07;17.61;60.14
73780;SHT30;62093;37.614;15.072;2023-04-25T07:37:34;17.58;60.08
73780;SHT30;62093;37.614;15.072;2023-04-25T07:40:07;17.58;60.09
73780;SHT30;62093;37.614;15.072;2023-04-25T07:42:36;17.62;60.03
73780;SHT30;62093;37.614;15.072;2023-04-25T07:45:03;17.59;60.12
73780;SHT30;62093;37.614;15.072;2023-04-25T07:47:29;17.59;60.06
73780;SHT30;62093;37.614;15.072;2023-04-25T07:49:56;17.63;60.07
73780;SHT30;62093;37.614;15.072;2023-04-25T07:52:23;17.65;60.03
73780;SHT30;62093;37.614;15.072;2023-04-25T07:54:55;17.66;60.11
73780;SHT30;62093;37.614;15.072;2023-04-25T07:57:32;17.65;60.07
73780;SHT30;62093;37.614;15.072;2023-04-25T07:59:58;17.62;60.02
73780;SHT30;62093;37.614;15.072;2023-04-25T08:02:25;17.66;60.05
73780;SHT30;62093;37.614;15.072;2023-04-25T08:04:54;17.65;60.06
73780;SHT30;62093;37.614;15.072;2023-04-25T08:07:20;17.63;60.04
73780;SHT30;62093;37.614;15.072;2023-04-25T08:09:54;17.65;60.08
73780;SHT30;62093;37.614;15.072;2023-04-25T08:12:28;17.65;60.07
73780;SHT30;62093;37.614;15.072;2023-04-25T08:14:58;17.65;60.06
73780;SHT30;62093;37.614;15.072;2023-04-25T08:17:27;17.69;60.09
73780;SHT30;62093;37.614;15.072;2023-04-25T08:19:56;17.65;60.08
73780;SHT30;62093;37.614;15.072;2023-04-25T08:22:29;17.68;60.07
73780;SHT30;62093;37.614;15.072;2023-04-25T08:25:11;17.68;60.07
73780;SHT30;62093;37.614;15.072;2023-04-25T08:27:38;17.72;60.03
73780;SHT30;62093;37.614;15.072;2023-04-25T08:30:05;17.71;60.06
73780;SHT30;62093;37.614;15.072;2023-04-25T08:32:31;17.71;60.03
73780;SHT30;62093;37.614;15.072;2023-04-25T08:35:20;17.75;60.04
73780;SHT30;62093;37.614;15.072;2023-04-25T08:37:46;17.71;60.01
73780;SHT30;62093;37.614;15.072;2023-04-25T08:40:15;17.72;60.03
73780;SHT30;62093;37.614;15.072;2023-04-25T08:42:44;17.75;60.01
73780;SHT30;62093;37.614;15.072;2023-04-25T08:45:12;17.75;60.01
73780;SHT30;62093;37.614;15.072;2023-04-25T08:47:42;17.75;60.00
73780;SHT30;62093;37.614;15.072;2023-04-25T08:50:09;17.76;60.00
73780;SHT30;62093;37.614;15.072;2023-04-25T08:52:37;17.78;60.00
73780;SHT30;62093;37.614;15.072;2023-04-25T08:55:09;17.78;60.00
73780;SHT30;62093;37.614;15.072;2023-04-25T08:57:35;17.78;59.97
73780;SHT30;62093;37.614;15.072;2023-04-25T09:00:01;17.78;59.90
73780;SHT30;62093;37.614;15.072;2023-04-25T09:02:27;17.81;59.98
73780;SHT30;62093;37.614;15.072;2023-04-25T09:04:54;17.79;59.96
73780;SHT30;62093;37.614;15.072;2023-04-25T09:07:20;17.82;59.94
73780;SHT30;62093;37.614;15.072;2023-04-25T09:09:47;17.83;59.91
73780;SHT30;62093;37.614;15.072;2023-04-25T09:12:18;17.83;59.93
73780;SHT30;62093;37.614;15.072;2023-04-25T09:15:06;17.87;59.89
73780;SHT30;62093;37.614;15.072;2023-04-25T09:17:57;17.87;59.90
73780;SHT30;62093;37.614;15.072;2023-04-25T09:20:24;17.89;59.84
73780;SHT30;62093;37.614;15.072;2023-04-25T09:23:04;17.87;59.84
73780;SHT30;62093;37.614;15.072;2023-04-25T09:25:37;17.90;59.86
73780;SHT30;62093;37.614;15.072;2023-04-25T09:28:06;17.90;59.85
73780;SHT30;62093;37.614;15.072;2023-04-25T09:30:34;17.90;59.84
73780;SHT30;62093;37.614;15.072;2023-04-25T09:33:33;17.90;59.82
73780;SHT30;62093;37.614;15.072;2023-04-25T09:36:10;17.95;59.79
73780;SHT30;62093;37.614;15.072;2023-04-25T09:38:59;17.93;59.80
73780;SHT30;62093;37.614;15.072;2023-04-25T09:41:37;17.95;59.78
73780;SHT30;62093;37.614;15.072;2023-04-25T09:44:04;17.95;59.78
73780;SHT30;62093;37.614;15.072;2023-04-25T09:46:35;17.93;59.75
73780;SHT30;62093;37.614;15.072;2023-04-25T09:49:23;17.96;59.78
73780;SHT30;62093;37.614;15.072;2023-04-25T09:52:05;17.99;59.76
73780;SHT30;62093;37.614;15.072;2023-04-25T09:54:37;17.96;59.76
73780;SHT30;62093;37.614;15.072;2023-04-25T09:57:14;18.02;59.73
73780;SHT30;62093;37.614;15.072;2023-04-25T09:59:57;17.97;59.69
73780;SHT30;62093;37.614;15.072;2023-04-25T10:02:30;18.02;59.69
73780;SHT30;62093;37.614;15.072;2023-04-25T10:05:05;18.02;59.67
73780;SHT30;62093;37.614;15.072;2023-04-25T10:07:38;18.03;59.67
73780;SHT30;62093;37.614;15.072;2023-04-25T10:10:08;18.02;59.65
73780;SHT30;62093;37.614;15.072;2023-04-25T10:12:35;18.04;59.63
73780;SHT30;62093;37.614;15.072;2023-04-25T10:15:03;18.04;59.63
73780;SHT30;62093;37.614;15.072;2023-04-25T10:17:29;18.04;59.62
73780;SHT30;62093;37.614;15.072;2023-04-25T10:19:57;18.06;59.60
73780;SHT30;62093;37.614;15.072;2023-04-25T10:22:31;18.06;59.59
73780;SHT30;62093;37.614;15.072;2023-04-25T10:24:58;18.06;59.58
73780;SHT30;62093;37.614;15.072;2023-04-25T10:27:27;18.07;59.55
73780;SHT30;62093;37.614;15.072;2023-04-25T10:32:32;18.10;59.52
73780;SHT30;62093;37.614;15.072;2023-04-25T10:35:18;18.07;59.54
73780;SHT30;62093;37.614;15.072;2023-04-25T10:38:03;18.09;59.53
73780;SHT30;62093;37.614;15.072;2023-04-25T10:40:33;18.12;59.51
73780;SHT30;62093;37.614;15.072;2023-04-25T10:46:24;18.12;59.42
73780;SHT30;62093;37.614;15.072;2023-04-25T10:48:52;18.12;59.45
73780;SHT30;62093;37.614;15.072;2023-04-25T10:51:23;18.13;59.47
73780;SHT30;62093;37.614;15.072;2023-04-25T10:56:26;18.16;59.37
73780;SHT30;62093;37.614;15.072;2023-04-25T10:59:14;18.14;59.37
73780;SHT30;62093;37.614;15.072;2023-04-25T11:01:47;18.16;59.35
73780;SHT30;62093;37.614;15.072;2023-04-25T11:04:22;18.17;59.34
73780;SHT30;62093;37.614;15.072;2023-04-25T11:09:39;18.20;59.27
73780;SHT30;62093;37.614;15.072;2023-04-25T11:12:08;18.18;59.28
73780;SHT30;62093;37.614;15.072;2023-04-25T11:14:35;18.20;59.25
73780;SHT30;62093;37.614;15.072;2023-04-25T11:17:01;18.18;59.18
73780;SHT30;62093;37.614;15.072;2023-04-25T11:19:28;18.20;59.18
73780;SHT30;62093;37.614;15.072;2023-04-25T11:21:58;18.20;59.19
73780;SHT30;62093;37.614;15.072;2023-04-25T11:24:32;18.24;59.16
73780;SHT30;62093;37.614;15.072;2023-04-25T11:27:00;18.24;59.10
73780;SHT30;62093;37.614;15.072;2023-04-25T11:29:31;18.26;59.11
73780;SHT30;62093;37.614;15.072;2023-04-25T11:31:58;18.26;59.10
73780;SHT30;62093;37.614;15.072;2023-04-25T11:34:27;18.24;59.08
73780;SHT30;62093;37.614;15.072;2023-04-25T11:36:56;18.27;59.06
73780;SHT30;62093;37.614;15.072;2023-04-25T11:39:26;18.30;59.03
73780;SHT30;62093;37.614;15.072;2023-04-25T11:41:53;18.30;59.00
73780;SHT30;62093;37.614;15.072;2023-04-25T11:44:19;18.30;58.98
73780;SHT30;62093;37.614;15.072;2023-04-25T11:46:46;18.30;58.96
73780;SHT30;62093;37.614;15.072;2023-04-25T11:49:13;18.30;58.92
73780;SHT30;62093;37.614;15.072;2023-04-25T11:51:44;18.32;58.93
73780;SHT30;62093;37.614;15.072;2023-04-25T11:54:10;18.34;58.91
73780;SHT30;62093;37.614;15.072;2023-04-25T11:56:40;18.32;58.89
73780;SHT30;62093;37.614;15.072;2023-04-25T11:59:06;18.36;58.85
73780;SHT30;62093;37.614;15.072;2023-04-25T12:01:35;18.34;58.83
73780;SHT30;62093;37.614;15.072;2023-04-25T12:04:19;18.36;58.82
73780;SHT30;62093;37.614;15.072;2023-04-25T12:06:46;18.37;58.78
73780;SHT30;62093;37.614;15.072;2023-04-25T12:09:16;18.36;58.77
73780;SHT30;62093;37.614;15.072;2023-04-25T12:11:44;18.40;58.75
73780;SHT30;62093;37.614;15.072;2023-04-25T12:14:12;18.37;58.72
73780;SHT30;62093;37.614;15.072;2023-04-25T12:16:46;18.43;58.74
73780;SHT30;62093;37.614;15.072;2023-04-25T12:19:16;18.41;58.70
73780;SHT30;62093;37.614;15.072;2023-04-25T12:21:43;18.43;58.65
73780;SHT30;62093;37.614;15.072;2023-04-25T12:24:21;18.43;58.63
73780;SHT30;62093;37.614;15.072;2023-04-25T12:26:52;18.45;58.59
73780;SHT30;62093;37.614;15.072;2023-04-25T12:29:23;18.47;58.56
73780;SHT30;62093;37.614;15.072;2023-04-25T12:31:51;18.47;58.52
73780;SHT30;62093;37.614;15.072;2023-04-25T12:34:21;18.44;58.51
73780;SHT30;62093;37.614;15.072;2023-04-25T12:36:48;18.48;58.47
73780;SHT30;62093;37.614;15.072;2023-04-25T12:39:15;18.48;58.42
73780;SHT30;62093;37.614;15.072;2023-04-25T12:41:41;18.50;58.43
73780;SHT30;62093;37.614;15.072;2023-04-25T12:44:07;18.51;58.37
73780;SHT30;62093;37.614;15.072;2023-04-25T12:46:33;18.51;58.34
73780;SHT30;62093;37.614;15.072;2023-04-25T12:48:59;18.51;58.28
73780;SHT30;62093;37.614;15.072;2023-04-25T12:51:25;18.51;58.23
73780;SHT30;62093;37.614;15.072;2023-04-25T12:53:53;18.55;58.22
73780;SHT30;62093;37.614;15.072;2023-04-25T12:56:19;18.54;58.23
73780;SHT30;62093;37.614;15.072;2023-04-25T12:58:45;18.57;58.14
73780;SHT30;62093;37.614;15.072;2023-04-25T13:01:11;18.55;58.13
73780;SHT30;62093;37.614;15.072;2023-04-25T13:03:39;18.58;58.05
73780;SHT30;62093;37.614;15.072;2023-04-25T13:06:06;18.58;58.04
73780;SHT30;62093;37.614;15.072;2023-04-25T13:08:32;18.60;57.98
73780;SHT30;62093;37.614;15.072;2023-04-25T13:10:58;18.60;58.00
73780;SHT30;62093;37.614;15.072;2023-04-25T13:13:25;18.61;57.98
73780;SHT30;62093;37.614;15.072;2023-04-25T13:15:52;18.63;57.90
73780;SHT30;62093;37.614;15.072;2023-04-25T13:18:18;18.61;57.89
73780;SHT30;62093;37.614;15.072;2023-04-25T13:20:44;18.64;57.85
73780;SHT30;62093;37.614;15.072;2023-04-25T13:23:11;18.64;57.82
73780;SHT30;62093;37.614;15.072;2023-04-25T13:25:37;18.64;57.80
73780;SHT30;62093;37.614;15.072;2023-04-25T13:28:03;18.67;57.73
73780;SHT30;62093;37.614;15.072;2023-04-25T13:30:30;18.69;57.69
73780;SHT30;62093;37.614;15.072;2023-04-25T13:32:55;18.67;57.71
73780;SHT30;62093;37.614;15.072;2023-04-25T13:35:23;18.67;57.63
73780;SHT30;62093;37.614;15.072;2023-04-25T13:37:49;18.69;57.62
73780;SHT30;62093;37.614;15.072;2023-04-25T13:40:15;18.71;57.61
73780;SHT30;62093;37.614;15.072;2023-04-25T13:42:41;18.72;57.60
73780;SHT30;62093;37.614;15.072;2023-04-25T13:45:09;18.72;57.60
73780;SHT30;62093;37.614;15.072;2023-04-25T13:47:35;18.72;57.57
73780;SHT30;62093;37.614;15.072;2023-04-25T13:50:02;18.74;57.52
73780;SHT30;62093;37.614;15.072;2023-04-25T13:52:29;18.74;57.51
73780;SHT30;62093;37.614;15.072;2023-04-25T13:54:55;18.74;57.49
73780;SHT30;62093;37.614;15.072;2023-04-25T13:57:21;18.75;57.47
73780;SHT30;62093;37.614;15.072;2023-04-25T13:59:47;18.76;57.47
73780;SHT30;62093;37.614;15.072;2023-04-25T14:02:13;18.75;57.47
73780;SHT30;62093;37.614;15.072;2023-04-25T14:04:40;18.78;57.40
73780;SHT30;62093;37.614;15.072;2023-04-25T14:07:06;18.83;57.41
73780;SHT30;62093;37.614;15.072;2023-04-25T14:09:32;18.78;57.35
73780;SHT30;62093;37.614;15.072;2023-04-25T14:11:58;18.81;57.32
73780;SHT30;62093;37.614;15.072;2023-04-25T14:14:25;18.81;57.31
73780;SHT30;62093;37.614;15.072;2023-04-25T14:16:51;18.83;57.28
73780;SHT30;62093;37.614;15.072;2023-04-25T14:19:20;18.84;57.28
73780;SHT30;62093;37.614;15.072;2023-04-25T14:21:46;18.84;57.25
73780;SHT30;62093;37.614;15.072;2023-04-25T14:24:13;18.81;57.24
73780;SHT30;62093;37.614;15.072;2023-04-25T14:26:39;18.81;57.23
73780;SHT30;62093;37.614;15.072;2023-04-25T14:29:06;18.84;57.23
73780;SHT30;62093;37.614;15.072;2023-04-25T14:31:34;18.85;57.19
73780;SHT30;62093;37.614;15.072;2023-04-25T14:34:02;18.84;57.16
73780;SHT30;62093;37.614;15.072;2023-04-25T14:36:28;18.83;57.12
73780;SHT30;62093;37.614;15.072;2023-04-25T14:38:54;18.85;57.11
73780;SHT30;62093;37.614;15.072;2023-04-25T14:41:20;18.85;57.10
73780;SHT30;62093;37.614;15.072;2023-04-25T14:43:46;18.87;57.12
73780;SHT30;62093;37.614;15.072;2023-04-25T14:46:13;18.84;57.08
73780;SHT30;62093;37.614;15.072;2023-04-25T14:48:38;18.88;57.07
73780;SHT30;62093;37.614;15.072;2023-04-25T14:51:04;18.87;57.10
73780;SHT30;62093;37.614;15.072;2023-04-25T14:53:31;18.88;57.06
73780;SHT30;62093;37.614;15.072;2023-04-25T14:55:57;18.85;57.08
73780;SHT30;62093;37.614;15.072;2023-04-25T14:58:23;18.85;57.02
73780;SHT30;62093;37.614;15.072;2023-04-25T15:00:50;18.87;57.02
73780;SHT30;62093;37.614;15.072;2023-04-25T15:03:16;18.85;57.01
73780;SHT30;62093;37.614;15.072;2023-04-25T15:05:43;18.88;57.02
73780;SHT30;62093;37.614;15.072;2023-04-25T15:08:09;18.87;56.98
73780;SHT30;62093;37.614;15.072;2023-04-25T15:10:36;18.87;56.97
73780;SHT30;62093;37.614;15.072;2023-04-25T15:13:03;18.88;56.94
73780;SHT30;62093;37.614;15.072;2023-04-25T15:15:29;18.89;56.92
73780;SHT30;62093;37.614;15.072;2023-04-25T15:17:57;18.89;56.97
73780;SHT30;62093;37.614;15.072;2023-04-25T15:20:23;18.89;56.94
73780;SHT30;62093;37.614;15.072;2023-04-25T15:22:50;18.89;56.93
73780;SHT30;62093;37.614;15.072;2023-04-25T15:25:16;18.89;56.94
73780;SHT30;62093;37.614;15.072;2023-04-25T15:27:43;18.88;56.87
73780;SHT30;62093;37.614;15.072;2023-04-25T15:30:12;18.91;56.89
73780;SHT30;62093;37.614;15.072;2023-04-25T15:32:43;18.91;56.83
73780;SHT30;62093;37.614;15.072;2023-04-25T15:35:10;18.89;56.81
73780;SHT30;62093;37.614;15.072;2023-04-25T15:37:37;18.89;56.79
73780;SHT30;62093;37.614;15.072;2023-04-25T15:40:10;18.87;56.82
73780;SHT30;62093;37.614;15.072;2023-04-25T15:42:45;18.92;56.79